Time;durP1;ratioP1;P1;durP2;ratioP2;P2;SDS_P1;SDS_P2;PMS_P1;PMS_P2;Temp;Humidity;BMP_temperature;BMP_pressure;BME280_temperature;BME280_humidity;BME280_pressure;Samples;Min_cycle;Max_cycle;Signal;HPM_P1;HPM_P2
2024/03/26 00:00:11;;;;;;;21.38;6.28;;;;;;;;;;5000039;28;20088;-86
2024/03/26 00:02:40;;;;;;;18.08;5.93;;;;;;;;;;4995155;28;20044;-85
2024/03/26 00:05:07;;;;;;;16.65;4.90;;;;;;;;;;4994913;28;20030;-86
2024/03/26 00:07:35;;;;;;;18.38;5.70;;;;;;;;;;4997520;28;20049;-86
2024/03/26 00:10:03;;;;;;;16.27;5.63;;;;;;;;;;4984873;28;20693;-86
2024/03/26 00:12:31;;;;;;;15.98;5.13;;;;;;;;;;4993851;28;20038;-87
2024/03/26 00:14:58;;;;;;;20.88;6.47;;;;;;;;;;4994969;28;20048;-87
2024/03/26 00:17:26;;;;;;;17.73;5.93;;;;;;;;;;4994525;28;20018;-88
2024/03/26 00:19:52;;;;;;;19.08;6.30;;;;;;;;;;4996169;28;20029;-87
2024/03/26 00:22:19;;;;;;;18.40;5.82;;;;;;;;;;5001341;28;20033;-87
2024/03/26 00:24:46;;;;;;;16.55;5.47;;;;;;;;;;4997465;28;20034;-87
2024/03/26 00:27:17;;;;;;;16.48;5.60;;;;;;;;;;4995894;28;20468;-86
2024/03/26 00:29:45;;;;;;;19.75;6.45;;;;;;;;;;5020478;28;20042;-87
2024/03/26 00:32:14;;;;;;;17.50;5.88;;;;;;;;;;5008471;28;20162;-88
2024/03/26 00:34:41;;;;;;;17.15;5.63;;;;;;;;;;5017577;28;20026;-87
2024/03/26 00:37:09;;;;;;;17.90;5.65;;;;;;;;;;5016646;28;20075;-86
2024/03/26 00:39:36;;;;;;;18.92;6.38;;;;;;;;;;4992016;28;20622;-78
2024/03/26 00:42:03;;;;;;;17.88;6.20;;;;;;;;;;4984814;28;20037;-77
2024/03/26 00:44:30;;;;;;;16.88;6.43;;;;;;;;;;4983012;28;20048;-78
2024/03/26 00:46:59;;;;;;;16.70;6.00;;;;;;;;;;4984110;28;20049;-79
2024/03/26 00:49:26;;;;;;;19.20;5.72;;;;;;;;;;4988321;28;20133;-81
2024/03/26 00:51:54;;;;;;;18.42;5.65;;;;;;;;;;4982918;28;20022;-78
2024/03/26 00:54:20;;;;;;;16.80;5.90;;;;;;;;;;4988944;28;20084;-79
2024/03/26 00:56:48;;;;;;;19.67;5.40;;;;;;;;;;4983485;28;20150;-77
2024/03/26 00:59:14;;;;;;;15.85;5.57;;;;;;;;;;4988600;28;20088;-78
2024/03/26 01:01:40;;;;;;;19.20;5.80;;;;;;;;;;4980261;28;20053;-78
2024/03/26 01:04:08;;;;;;;15.77;5.78;;;;;;;;;;4983761;28;20026;-78
2024/03/26 01:06:34;;;;;;;16.25;5.63;;;;;;;;;;4983474;28;20045;-78
2024/03/26 01:09:00;;;;;;;17.92;5.32;;;;;;;;;;4985389;28;20040;-78
2024/03/26 01:11:27;;;;;;;17.45;5.68;;;;;;;;;;4987269;28;20037;-78
2024/03/26 01:13:53;;;;;;;14.77;4.82;;;;;;;;;;4988729;28;20052;-78
2024/03/26 01:16:21;;;;;;;19.13;6.10;;;;;;;;;;4985735;28;20063;-78
2024/03/26 01:18:48;;;;;;;15.55;5.20;;;;;;;;;;4978171;28;20026;-78
2024/03/26 01:21:16;;;;;;;12.32;4.55;;;;;;;;;;4986303;28;20282;-78
2024/03/26 01:23:43;;;;;;;12.25;4.93;;;;;;;;;;4983900;28;20120;-78
2024/03/26 01:26:10;;;;;;;15.00;4.82;;;;;;;;;;4981417;28;20069;-78
2024/03/26 01:28:38;;;;;;;13.35;4.47;;;;;;;;;;4982040;28;20547;-78
2024/03/26 01:31:04;;;;;;;11.80;3.60;;;;;;;;;;4986197;28;20038;-77
2024/03/26 01:33:31;;;;;;;16.00;4.70;;;;;;;;;;4981551;28;20061;-77
2024/03/26 01:35:58;;;;;;;15.73;4.78;;;;;;;;;;4986344;28;20026;-76
2024/03/26 01:38:27;;;;;;;10.73;3.88;;;;;;;;;;4982618;28;20030;-78
2024/03/26 01:40:54;;;;;;;12.35;4.07;;;;;;;;;;4984822;28;20069;-76
2024/03/26 01:43:21;;;;;;;11.73;4.28;;;;;;;;;;4987354;28;20095;-77
2024/03/26 01:45:49;;;;;;;12.52;4.03;;;;;;;;;;4983276;28;20026;-77
2024/03/26 01:48:17;;;;;;;12.10;3.97;;;;;;;;;;4987878;28;20041;-78
2024/03/26 01:50:44;;;;;;;13.60;4.10;;;;;;;;;;4982321;28;20053;-77
2024/03/26 01:53:10;;;;;;;15.20;4.47;;;;;;;;;;4984459;28;20025;-77
2024/03/26 01:55:39;;;;;;;15.50;4.13;;;;;;;;;;4981158;28;20044;-76
2024/03/26 01:58:06;;;;;;;16.42;4.63;;;;;;;;;;4988982;28;20029;-76
2024/03/26 02:00:35;;;;;;;16.85;4.28;;;;;;;;;;4983484;28;20533;-77
2024/03/26 02:03:02;;;;;;;16.13;4.60;;;;;;;;;;4970299;28;20037;-77
2024/03/26 02:05:29;;;;;;;15.35;4.20;;;;;;;;;;4980917;28;20080;-77
2024/03/26 02:07:57;;;;;;;14.20;4.20;;;;;;;;;;5002097;28;20038;-77
2024/03/26 02:10:26;;;;;;;13.70;4.28;;;;;;;;;;4984129;28;20057;-78
2024/03/26 02:12:54;;;;;;;15.27;4.15;;;;;;;;;;4985702;28;20033;-77
2024/03/26 02:15:22;;;;;;;17.15;4.60;;;;;;;;;;4986569;28;20034;-77
2024/03/26 02:17:49;;;;;;;15.98;4.25;;;;;;;;;;4983718;28;20178;-78
2024/03/26 02:20:17;;;;;;;14.75;4.30;;;;;;;;;;4983476;28;20040;-78
2024/03/26 02:22:43;;;;;;;16.88;4.63;;;;;;;;;;4984821;28;20033;-77
2024/03/26 02:25:12;;;;;;;14.90;4.03;;;;;;;;;;4985309;28;20060;-77
2024/03/26 02:27:40;;;;;;;14.70;4.05;;;;;;;;;;4977414;28;20462;-77
2024/03/26 02:30:07;;;;;;;12.95;3.83;;;;;;;;;;4984624;28;20607;-75
2024/03/26 02:32:35;;;;;;;13.45;3.70;;;;;;;;;;4985790;28;20018;-75
2024/03/26 02:35:02;;;;;;;14.65;4.50;;;;;;;;;;4995344;28;20030;-75
2024/03/26 02:37:28;;;;;;;12.75;3.70;;;;;;;;;;4988215;28;20034;-77
2024/03/26 02:39:56;;;;;;;17.45;4.68;;;;;;;;;;4989854;28;20035;-77
2024/03/26 02:42:22;;;;;;;14.50;4.07;;;;;;;;;;4991730;28;20041;-77
2024/03/26 02:44:49;;;;;;;;;;;;;;;;;;4989420;28;20034;-77
2024/03/26 02:47:16;;;;;;;;;;;;;;;;;;4984184;28;19944;-77
2024/03/26 02:49:44;;;;;;;17.52;4.65;;;;;;;;;;4981126;28;19982;-77
2024/03/26 02:52:10;;;;;;;17.40;4.25;;;;;;;;;;4989864;28;20605;-77
2024/03/26 02:54:39;;;;;;;13.73;4.18;;;;;;;;;;4989145;28;20045;-78
2024/03/26 02:57:06;;;;;;;15.00;4.18;;;;;;;;;;4993841;28;20311;-78
2024/03/26 02:59:34;;;;;;;17.30;4.68;;;;;;;;;;4986490;28;20033;-78
2024/03/26 03:02:02;;;;;;;18.35;5.20;;;;;;;;;;4990916;28;20119;-78
2024/03/26 03:04:29;;;;;;;14.30;3.80;;;;;;;;;;4986310;28;20064;-77
2024/03/26 03:06:56;;;;;;;15.98;4.65;;;;;;;;;;4991390;28;21115;-77
2024/03/26 03:09:25;;;;;;;15.55;4.13;;;;;;;;;;4987197;28;20312;-76
2024/03/26 03:11:53;;;;;;;16.80;4.60;;;;;;;;;;4987965;28;20077;-77
2024/03/26 03:14:20;;;;;;;14.82;4.65;;;;;;;;;;4993027;28;20018;-76
2024/03/26 03:16:48;;;;;;;20.77;5.10;;;;;;;;;;4987315;28;20057;-77
2024/03/26 03:19:15;;;;;;;15.63;5.13;;;;;;;;;;4991968;28;20103;-77
2024/03/26 03:21:43;;;;;;;17.20;5.03;;;;;;;;;;4983177;28;20619;-77
2024/03/26 03:24:11;;;;;;;16.08;4.80;;;;;;;;;;4992873;28;20040;-77
2024/03/26 03:26:38;;;;;;;17.05;5.15;;;;;;;;;;4981613;28;20762;-77
2024/03/26 03:29:05;;;;;;;16.58;4.60;;;;;;;;;;4992489;28;20037;-77
2024/03/26 03:31:34;;;;;;;18.15;4.30;;;;;;;;;;4983502;28;20132;-77
2024/03/26 03:34:00;;;;;;;20.52;5.18;;;;;;;;;;4989465;28;20117;-77
2024/03/26 03:36:29;;;;;;;13.52;4.78;;;;;;;;;;4988946;28;20026;-76
2024/03/26 03:38:55;;;;;;;14.60;4.72;;;;;;;;;;4986499;28;20025;-76
2024/03/26 03:41:21;;;;;;;13.50;4.35;;;;;;;;;;4989139;28;20034;-76
2024/03/26 03:43:48;;;;;;;13.85;4.45;;;;;;;;;;4983975;28;20159;-76
2024/03/26 03:46:14;;;;;;;16.58;5.07;;;;;;;;;;4989594;28;20068;-77
2024/03/26 03:48:40;;;;;;;20.85;5.75;;;;;;;;;;4985315;28;20049;-77
2024/03/26 03:51:07;;;;;;;21.15;5.53;;;;;;;;;;4988870;28;20033;-76
2024/03/26 03:53:35;;;;;;;19.55;4.93;;;;;;;;;;4987313;28;20030;-76
2024/03/26 03:56:02;;;;;;;25.60;5.82;;;;;;;;;;4986274;28;20022;-77
2024/03/26 03:58:29;;;;;;;21.20;5.88;;;;;;;;;;4981774;28;20029;-76
2024/03/26 04:00:57;;;;;;;27.00;7.00;;;;;;;;;;5005207;28;20064;-75
2024/03/26 04:03:23;;;;;;;31.00;7.50;;;;;;;;;;4986590;28;20165;-75
2024/03/26 04:05:51;;;;;;;30.17;7.50;;;;;;;;;;4985450;28;20486;-75
2024/03/26 04:08:18;;;;;;;32.38;7.78;;;;;;;;;;4989930;28;20040;-76
2024/03/26 04:10:47;;;;;;;37.67;8.40;;;;;;;;;;4980832;28;20107;-76
2024/03/26 04:13:16;;;;;;;33.42;7.88;;;;;;;;;;4989778;28;20021;-76
2024/03/26 04:15:44;;;;;;;33.35;8.60;;;;;;;;;;4982065;28;20025;-76
2024/03/26 04:18:13;;;;;;;35.97;8.38;;;;;;;;;;4987853;28;20096;-76
2024/03/26 04:20:39;;;;;;;32.63;7.68;;;;;;;;;;4986324;28;20220;-77
2024/03/26 04:23:06;;;;;;;29.92;8.30;;;;;;;;;;4993432;28;20069;-76
2024/03/26 04:25:34;;;;;;;31.08;7.78;;;;;;;;;;4999577;28;20033;-76
2024/03/26 04:28:03;;;;;;;30.60;7.20;;;;;;;;;;4983236;28;20055;-75
2024/03/26 04:30:30;;;;;;;30.80;7.95;;;;;;;;;;4983571;28;20042;-76
2024/03/26 04:32:58;;;;;;;31.00;8.07;;;;;;;;;;4987272;28;20040;-76
2024/03/26 04:35:25;;;;;;;37.50;8.75;;;;;;;;;;4991384;28;20102;-76
2024/03/26 04:37:53;;;;;;;39.28;9.27;;;;;;;;;;4987578;28;20070;-75
2024/03/26 04:40:20;;;;;;;47.58;10.35;;;;;;;;;;4988573;28;20041;-75
2024/03/26 04:42:46;;;;;;;43.22;9.60;;;;;;;;;;4983709;28;20298;-75
2024/03/26 04:45:13;;;;;;;37.38;9.27;;;;;;;;;;4987130;28;20499;-77
2024/03/26 04:47:41;;;;;;;38.20;8.48;;;;;;;;;;4986767;28;20030;-75
2024/03/26 04:50:07;;;;;;;38.28;8.50;;;;;;;;;;4989226;28;20107;-77
2024/03/26 04:52:34;;;;;;;33.45;8.63;;;;;;;;;;4985534;28;20171;-75
2024/03/26 04:55:03;;;;;;;33.88;8.70;;;;;;;;;;4988841;28;20053;-78
2024/03/26 04:57:33;;;;;;;42.63;9.85;;;;;;;;;;4986185;28;20181;-75
2024/03/26 04:59:59;;;;;;;36.88;9.13;;;;;;;;;;4993535;28;20119;-77
2024/03/26 05:02:26;;;;;;;37.03;9.38;;;;;;;;;;4990907;28;20034;-75
2024/03/26 05:04:54;;;;;;;37.03;9.20;;;;;;;;;;4987679;28;20030;-75
2024/03/26 05:07:21;;;;;;;43.13;10.07;;;;;;;;;;4990524;28;20026;-75
2024/03/26 05:09:49;;;;;;;35.90;9.13;;;;;;;;;;4986806;28;21917;-75
2024/03/26 05:12:15;;;;;;;40.65;9.57;;;;;;;;;;4991318;28;20100;-76
2024/03/26 05:14:43;;;;;;;37.60;9.77;;;;;;;;;;4983801;28;20029;-76
2024/03/26 05:17:12;;;;;;;36.60;9.98;;;;;;;;;;4992456;28;20204;-77
2024/03/26 05:19:39;;;;;;;38.08;8.85;;;;;;;;;;4985688;28;20488;-76
2024/03/26 05:22:07;;;;;;;43.85;10.07;;;;;;;;;;4991173;28;20030;-76
2024/03/26 05:24:34;;;;;;;37.17;9.23;;;;;;;;;;4983112;28;20030;-76
2024/03/26 05:27:01;;;;;;;39.88;9.55;;;;;;;;;;4990396;28;20033;-76
2024/03/26 05:29:30;;;;;;;41.72;10.48;;;;;;;;;;4988930;28;20038;-76
2024/03/26 05:31:59;;;;;;;44.38;10.75;;;;;;;;;;4992398;28;20091;-76
2024/03/26 05:34:27;;;;;;;35.03;9.43;;;;;;;;;;4986704;28;20269;-76
2024/03/26 05:36:53;;;;;;;34.42;8.68;;;;;;;;;;4987000;28;20048;-76
2024/03/26 05:39:21;;;;;;;34.28;9.18;;;;;;;;;;4991016;28;20034;-76
2024/03/26 05:41:49;;;;;;;33.72;9.32;;;;;;;;;;4989602;28;20034;-77
2024/03/26 05:44:16;;;;;;;39.40;9.88;;;;;;;;;;4991828;28;20049;-76
2024/03/26 05:46:45;;;;;;;39.58;9.98;;;;;;;;;;4992297;28;20033;-76
2024/03/26 05:49:13;;;;;;;35.70;10.18;;;;;;;;;;4990332;28;20034;-76
2024/03/26 05:51:39;;;;;;;36.88;10.32;;;;;;;;;;4983630;28;20030;-78
2024/03/26 05:54:08;;;;;;;39.45;10.32;;;;;;;;;;4973328;28;20041;-77
2024/03/26 05:56:36;;;;;;;47.10;10.73;;;;;;;;;;4985013;28;20101;-76
2024/03/26 05:59:05;;;;;;;41.72;10.55;;;;;;;;;;4986246;28;20025;-76
2024/03/26 06:01:32;;;;;;;41.67;10.50;;;;;;;;;;4984591;28;20033;-76
2024/03/26 06:03:59;;;;;;;41.53;10.63;;;;;;;;;;4989620;28;20466;-76
2024/03/26 06:06:26;;;;;;;42.70;11.18;;;;;;;;;;4987117;28;20132;-77
2024/03/26 06:08:52;;;;;;;30.05;8.50;;;;;;;;;;4986171;28;20053;-77
2024/03/26 06:11:18;;;;;;;33.05;8.40;;;;;;;;;;4988993;28;20584;-75
2024/03/26 06:13:45;;;;;;;31.05;9.13;;;;;;;;;;4983300;28;20141;-78
2024/03/26 06:16:13;;;;;;;32.80;9.75;;;;;;;;;;4993003;28;20025;-77
2024/03/26 06:18:40;;;;;;;32.60;8.68;;;;;;;;;;4986743;28;20121;-78
2024/03/26 06:21:07;;;;;;;41.15;10.30;;;;;;;;;;4980500;28;20041;-77
2024/03/26 06:23:35;;;;;;;34.03;10.13;;;;;;;;;;4984125;28;20093;-75
2024/03/26 06:26:02;;;;;;;42.95;10.48;;;;;;;;;;4973568;28;20041;-77
2024/03/26 06:28:28;;;;;;;42.10;10.25;;;;;;;;;;4983296;28;20022;-79
2024/03/26 06:30:54;;;;;;;37.60;9.93;;;;;;;;;;4988315;28;20054;-75
2024/03/26 06:33:20;;;;;;;37.05;9.70;;;;;;;;;;4986213;28;20029;-76
2024/03/26 06:35:47;;;;;;;34.83;9.40;;;;;;;;;;4985812;28;21468;-76
2024/03/26 06:38:16;;;;;;;35.85;9.70;;;;;;;;;;4986517;28;20030;-77
2024/03/26 06:40:44;;;;;;;36.33;9.52;;;;;;;;;;4983172;28;20092;-76
2024/03/26 06:43:13;;;;;;;31.58;8.85;;;;;;;;;;4987361;28;20045;-76
2024/03/26 06:45:42;;;;;;;32.13;8.07;;;;;;;;;;4982957;28;20465;-76
2024/03/26 06:48:08;;;;;;;30.83;8.48;;;;;;;;;;4982144;28;20030;-77
2024/03/26 06:50:37;;;;;;;29.98;7.70;;;;;;;;;;4985756;28;20040;-76
2024/03/26 06:53:04;;;;;;;27.30;7.43;;;;;;;;;;4988955;28;20029;-76
2024/03/26 06:55:30;;;;;;;28.80;7.43;;;;;;;;;;4981481;28;20022;-76
2024/03/26 06:57:58;;;;;;;;;;;;;;;;;;4985793;28;20026;-77
2024/03/26 07:00:25;;;;;;;25.45;7.25;;;;;;;;;;4986283;28;20047;-77
2024/03/26 07:02:57;;;;;;;27.13;6.40;;;;;;;;;;4983915;28;20045;-77
2024/03/26 07:05:28;;;;;;;22.48;6.70;;;;;;;;;;4985184;28;20037;-76
2024/03/26 07:07:54;;;;;;;25.23;6.55;;;;;;;;;;4985199;28;20037;-77
2024/03/26 07:10:22;;;;;;;23.20;6.50;;;;;;;;;;4985668;28;20026;-77
2024/03/26 07:12:51;;;;;;;23.80;6.47;;;;;;;;;;4980161;28;22120;-77
2024/03/26 07:15:20;;;;;;;18.98;5.50;;;;;;;;;;4982385;28;20022;-77
2024/03/26 07:17:48;;;;;;;23.60;6.13;;;;;;;;;;4978643;28;20068;-79
2024/03/26 07:20:15;;;;;;;20.67;6.22;;;;;;;;;;4980418;28;20124;-77
2024/03/26 07:22:43;;;;;;;24.17;6.18;;;;;;;;;;4977353;28;20037;-77
2024/03/26 07:25:09;;;;;;;24.58;6.07;;;;;;;;;;4987167;28;20464;-77
2024/03/26 07:27:37;;;;;;;;;;;;;;;;;;4982499;28;20042;-77
2024/03/26 07:30:04;;;;;;;23.33;6.35;;;;;;;;;;4985928;28;19931;-76
2024/03/26 07:32:31;;;;;;;20.30;6.28;;;;;;;;;;4981309;28;20129;-77
2024/03/26 07:35:00;;;;;;;21.90;5.95;;;;;;;;;;4984253;28;20558;-77
2024/03/26 07:37:28;;;;;;;17.63;5.28;;;;;;;;;;4988024;28;20017;-77
2024/03/26 07:39:54;;;;;;;24.00;5.97;;;;;;;;;;4985962;28;20720;-77
2024/03/26 07:42:21;;;;;;;;;;;;;;;;;;4985644;28;20444;-78
2024/03/26 07:44:50;;;;;;;19.92;5.10;;;;;;;;;;4981608;28;19917;-77
2024/03/26 07:47:16;;;;;;;17.88;5.18;;;;;;;;;;4989044;28;20053;-77
2024/03/26 07:49:44;;;;;;;18.45;5.07;;;;;;;;;;4983745;28;20030;-77
2024/03/26 07:52:13;;;;;;;22.25;5.32;;;;;;;;;;4989247;28;20117;-78
2024/03/26 07:54:39;;;;;;;20.27;4.97;;;;;;;;;;4987625;28;20030;-78
2024/03/26 07:57:07;;;;;;;;;;;;;;;;;;4988072;28;20473;-78
2024/03/26 07:59:34;;;;;;;16.33;4.50;;;;;;;;;;4985604;28;19913;-77
2024/03/26 08:02:03;;;;;;;19.63;4.78;;;;;;;;;;4991828;28;20607;-77
2024/03/26 08:04:32;;;;;;;20.95;4.90;;;;;;;;;;4985768;28;20033;-77
2024/03/26 08:06:59;;;;;;;;;;;;;;;;;;4985840;28;20651;-77
2024/03/26 08:09:25;;;;;;;20.38;4.70;;;;;;;;;;4990882;28;19917;-77
2024/03/26 08:11:52;;;;;;;18.30;5.53;;;;;;;;;;4984681;28;20045;-77
2024/03/26 08:14:21;;;;;;;17.38;4.85;;;;;;;;;;4990098;28;20680;-77
2024/03/26 08:16:47;;;;;;;19.17;5.38;;;;;;;;;;4987656;28;20131;-77
2024/03/26 08:19:14;;;;;;;22.38;5.78;;;;;;;;;;4986794;28;20030;-76
2024/03/26 08:21:40;;;;;;;;;;;;;;;;;;4987478;28;20029;-77
2024/03/26 08:24:09;;;;;;;19.85;5.72;;;;;;;;;;4988169;28;19945;-76
2024/03/26 08:26:38;;;;;;;24.30;6.75;;;;;;;;;;4983456;28;20030;-77
2024/03/26 08:29:06;;;;;;;19.45;6.63;;;;;;;;;;4987084;28;20054;-77
2024/03/26 08:31:35;;;;;;;23.73;7.03;;;;;;;;;;4987425;28;20046;-76
2024/03/26 08:34:02;;;;;;;19.88;5.90;;;;;;;;;;4989962;28;20026;-76
2024/03/26 08:36:31;;;;;;;18.48;5.50;;;;;;;;;;4984132;28;20061;-76
2024/03/26 08:39:01;;;;;;;21.42;5.70;;;;;;;;;;4985491;28;20017;-76
2024/03/26 08:41:30;;;;;;;20.52;6.00;;;;;;;;;;4988100;28;20060;-77
2024/03/26 08:43:58;;;;;;;21.58;5.28;;;;;;;;;;4990076;28;20029;-77
2024/03/26 08:46:25;;;;;;;17.50;5.28;;;;;;;;;;4992416;28;20136;-77
2024/03/26 08:48:52;;;;;;;19.83;5.13;;;;;;;;;;4987986;28;20042;-77
2024/03/26 08:51:23;;;;;;;20.83;5.05;;;;;;;;;;4986630;28;20168;-76
2024/03/26 08:53:52;;;;;;;18.00;4.72;;;;;;;;;;4985285;28;20021;-77
2024/03/26 08:56:19;;;;;;;18.23;5.07;;;;;;;;;;4991206;28;20033;-77
2024/03/26 08:58:48;;;;;;;19.65;5.15;;;;;;;;;;4981923;28;20041;-77
2024/03/26 09:01:15;;;;;;;17.20;4.50;;;;;;;;;;4988821;28;20044;-76
2024/03/26 09:03:42;;;;;;;;;;;;;;;;;;4986807;28;20037;-76
2024/03/26 09:06:08;;;;;;;15.32;4.97;;;;;;;;;;4990875;28;19913;-76
2024/03/26 09:08:35;;;;;;;;;;;;;;;;;;4985400;28;20715;-77
2024/03/26 09:11:02;;;;;;;;;;;;;;;;;;4990964;28;19917;-76
2024/03/26 09:13:34;;;;;;;15.68;3.92;;;;;;;;;;4989517;28;20606;-77
2024/03/26 09:16:03;;;;;;;11.40;3.58;;;;;;;;;;4976293;28;20045;-76
2024/03/26 09:18:30;;;;;;;14.70;4.35;;;;;;;;;;4989705;28;20120;-76
2024/03/26 09:20:58;;;;;;;17.90;3.78;;;;;;;;;;4988770;28;20676;-77
2024/03/26 09:23:24;;;;;;;12.90;3.53;;;;;;;;;;4992881;28;20050;-75
2024/03/26 09:25:53;;;;;;;;;;;;;;;;;;4987038;28;20469;-76
2024/03/26 09:28:21;;;;;;;12.50;2.80;;;;;;;;;;4994328;28;19917;-76
2024/03/26 09:30:51;;;;;;;11.77;2.95;;;;;;;;;;4986194;28;20099;-76
2024/03/26 09:33:18;;;;;;;8.85;2.35;;;;;;;;;;4992919;28;20120;-77
2024/03/26 09:35:47;;;;;;;13.15;2.42;;;;;;;;;;4985320;28;20556;-76
2024/03/26 09:38:14;;;;;;;9.65;2.17;;;;;;;;;;4990381;28;20036;-76
2024/03/26 09:40:48;;;;;;;13.38;2.20;;;;;;;;;;4983320;28;20041;-77
2024/03/26 09:43:16;;;;;;;10.32;2.08;;;;;;;;;;4990523;28;20034;-76
2024/03/26 09:45:44;;;;;;;6.93;1.98;;;;;;;;;;4991050;28;20272;-77
2024/03/26 09:48:12;;;;;;;12.80;2.38;;;;;;;;;;4995587;28;20630;-76
2024/03/26 09:50:39;;;;;;;10.73;2.20;;;;;;;;;;4988847;28;20033;-76
2024/03/26 09:53:09;;;;;;;15.43;2.58;;;;;;;;;;4992713;28;20037;-76
2024/03/26 09:55:39;;;;;;;9.27;2.55;;;;;;;;;;4981745;28;20033;-76
2024/03/26 09:58:05;;;;;;;8.25;1.90;;;;;;;;;;4988095;28;20036;-76
2024/03/26 10:00:31;;;;;;;;;;;;;;;;;;4984123;28;20086;-75
2024/03/26 10:03:00;;;;;;;10.35;2.38;;;;;;;;;;4994290;28;19996;-76
2024/03/26 10:05:30;;;;;;;10.77;2.22;;;;;;;;;;4995478;28;20050;-75
2024/03/26 10:07:58;;;;;;;10.80;2.20;;;;;;;;;;4995523;28;20036;-76
2024/03/26 10:10:25;;;;;;;11.05;2.30;;;;;;;;;;4987287;28;20599;-75
2024/03/26 10:12:52;;;;;;;10.40;2.17;;;;;;;;;;4981394;28;20121;-77
2024/03/26 10:15:18;;;;;;;9.50;1.70;;;;;;;;;;4982859;28;20634;-76
2024/03/26 10:17:45;;;;;;;11.40;2.72;;;;;;;;;;4978937;28;20456;-76
2024/03/26 10:20:13;;;;;;;9.75;2.00;;;;;;;;;;4985817;28;20536;-75
2024/03/26 10:22:40;;;;;;;9.10;2.17;;;;;;;;;;4981591;28;20613;-76
2024/03/26 10:25:07;;;;;;;9.75;2.30;;;;;;;;;;4987182;28;20084;-76
2024/03/26 10:27:35;;;;;;;10.60;2.13;;;;;;;;;;4984400;28;20044;-76
2024/03/26 10:30:01;;;;;;;9.23;2.10;;;;;;;;;;4984731;28;20456;-76
2024/03/26 10:32:30;;;;;;;12.93;2.22;;;;;;;;;;4980604;28;20029;-76
2024/03/26 10:35:05;;;;;;;10.45;2.40;;;;;;;;;;4987642;28;20026;-75
2024/03/26 10:37:31;;;;;;;9.07;2.10;;;;;;;;;;4983724;28;20662;-76
2024/03/26 10:40:07;;;;;;;8.35;1.88;;;;;;;;;;4987579;28;21088;-76
2024/03/26 10:42:44;;;;;;;7.30;1.77;;;;;;;;;;4980320;28;20045;-76
2024/03/26 10:45:12;;;;;;;7.38;1.80;;;;;;;;;;4986343;28;20029;-75
2024/03/26 10:47:39;;;;;;;8.77;1.83;;;;;;;;;;4983619;28;20053;-76
2024/03/26 10:50:08;;;;;;;8.93;1.98;;;;;;;;;;4969007;28;21015;-76
2024/03/26 10:52:36;;;;;;;7.90;2.03;;;;;;;;;;4984787;28;20042;-76
2024/03/26 10:55:04;;;;;;;9.10;1.85;;;;;;;;;;4986662;28;20026;-75
2024/03/26 10:57:30;;;;;;;9.25;1.80;;;;;;;;;;4986472;28;20026;-77
2024/03/26 10:59:57;;;;;;;10.68;2.05;;;;;;;;;;4995357;28;20030;-78
2024/03/26 11:02:26;;;;;;;7.20;1.70;;;;;;;;;;4992133;28;20492;-76
2024/03/26 11:04:53;;;;;;;9.05;2.22;;;;;;;;;;4988170;28;20033;-75
2024/03/26 11:07:23;;;;;;;5.97;1.38;;;;;;;;;;4994678;28;20034;-76
2024/03/26 11:09:59;;;;;;;8.10;1.90;;;;;;;;;;4990482;28;20034;-76
2024/03/26 11:12:27;;;;;;;9.23;2.10;;;;;;;;;;4982184;28;20053;-78
2024/03/26 11:14:57;;;;;;;9.05;2.20;;;;;;;;;;4991639;28;20033;-76
2024/03/26 11:17:25;;;;;;;8.40;1.70;;;;;;;;;;4992411;28;20065;-76
2024/03/26 11:19:53;;;;;;;10.25;2.28;;;;;;;;;;4991120;28;20026;-76
2024/03/26 11:22:41;;;;;;;10.52;1.95;;;;;;;;;;4992199;28;20034;-77
2024/03/26 11:25:10;;;;;;;11.77;2.03;;;;;;;;;;4993000;28;20111;-79
2024/03/26 11:27:37;;;;;;;8.40;2.10;;;;;;;;;;4990377;28;20034;-76
2024/03/26 11:30:05;;;;;;;7.32;1.70;;;;;;;;;;4990225;28;20038;-76
2024/03/26 11:32:33;;;;;;;10.05;2.40;;;;;;;;;;4986287;28;20549;-77
2024/03/26 11:35:22;;;;;;;12.10;2.60;;;;;;;;;;4988029;28;20041;-76
2024/03/26 11:37:56;;;;;;;12.60;2.95;;;;;;;;;;4986718;28;21537;-77
2024/03/26 11:40:24;;;;;;;16.20;2.97;;;;;;;;;;5001133;28;20717;-77
2024/03/26 11:42:53;;;;;;;11.82;2.75;;;;;;;;;;4991204;28;20037;-77
2024/03/26 11:45:19;;;;;;;10.63;2.22;;;;;;;;;;4996906;28;20056;-77
2024/03/26 11:47:46;;;;;;;8.32;1.80;;;;;;;;;;4990988;28;20045;-76
2024/03/26 11:50:13;;;;;;;7.70;2.10;;;;;;;;;;4999175;28;20547;-77
2024/03/26 11:52:41;;;;;;;8.85;2.20;;;;;;;;;;4993985;28;20069;-77
2024/03/26 11:55:07;;;;;;;12.55;2.40;;;;;;;;;;5002908;28;20025;-79
2024/03/26 11:57:38;;;;;;;10.38;2.50;;;;;;;;;;4992662;28;20035;-77
2024/03/26 12:00:06;;;;;;;13.20;2.80;;;;;;;;;;4994398;28;20041;-77
2024/03/26 12:02:35;;;;;;;10.32;2.58;;;;;;;;;;4965733;28;20136;-78
2024/03/26 12:05:03;;;;;;;14.27;2.50;;;;;;;;;;4972377;28;20114;-77
2024/03/26 12:07:36;;;;;;;11.20;1.98;;;;;;;;;;4986043;28;20115;-77
2024/03/26 12:10:04;;;;;;;11.30;1.85;;;;;;;;;;4985227;28;20041;-76
2024/03/26 12:12:35;;;;;;;10.13;1.80;;;;;;;;;;4969738;28;20038;-77
2024/03/26 12:15:05;;;;;;;12.07;2.08;;;;;;;;;;4980001;28;20033;-77
2024/03/26 12:17:33;;;;;;;8.90;2.10;;;;;;;;;;4977935;28;20862;-77
2024/03/26 12:20:01;;;;;;;10.38;2.00;;;;;;;;;;4988026;28;21071;-77
2024/03/26 12:22:30;;;;;;;11.02;2.10;;;;;;;;;;4983225;28;20040;-77
2024/03/26 12:24:58;;;;;;;10.27;2.08;;;;;;;;;;4983968;28;20113;-76
2024/03/26 12:27:25;;;;;;;11.93;1.98;;;;;;;;;;4981016;28;21294;-77
2024/03/26 12:29:53;;;;;;;10.85;2.10;;;;;;;;;;4981391;28;20504;-78
2024/03/26 12:32:19;;;;;;;10.02;2.00;;;;;;;;;;4985081;28;20034;-76
2024/03/26 12:34:47;;;;;;;7.07;1.63;;;;;;;;;;4982392;28;20030;-77
2024/03/26 12:37:14;;;;;;;11.13;1.90;;;;;;;;;;4981440;28;20033;-77
2024/03/26 12:39:42;;;;;;;9.98;2.47;;;;;;;;;;4975769;28;20500;-77
2024/03/26 12:42:08;;;;;;;11.23;2.20;;;;;;;;;;4999715;28;20034;-77
2024/03/26 12:44:36;;;;;;;8.63;1.60;;;;;;;;;;4978785;28;20576;-77
2024/03/26 12:47:03;;;;;;;8.68;1.60;;;;;;;;;;4981278;28;20097;-76
2024/03/26 12:49:30;;;;;;;9.82;1.90;;;;;;;;;;4979962;28;20026;-77
2024/03/26 12:51:57;;;;;;;9.93;2.40;;;;;;;;;;4985785;28;20547;-77
2024/03/26 12:54:25;;;;;;;10.60;2.08;;;;;;;;;;4984689;28;20037;-77
2024/03/26 12:56:53;;;;;;;9.30;1.88;;;;;;;;;;4979139;28;20107;-76
2024/03/26 12:59:21;;;;;;;7.60;1.88;;;;;;;;;;4983239;28;20030;-77
2024/03/26 13:01:47;;;;;;;11.15;2.15;;;;;;;;;;4980758;28;20029;-76
2024/03/26 13:04:14;;;;;;;8.60;1.77;;;;;;;;;;4986155;28;20028;-77
2024/03/26 13:06:42;;;;;;;8.32;2.10;;;;;;;;;;4978100;28;20029;-76
2024/03/26 13:09:09;;;;;;;12.00;2.17;;;;;;;;;;4982991;28;20022;-76
2024/03/26 13:11:36;;;;;;;8.70;2.10;;;;;;;;;;4995685;28;20075;-78
2024/03/26 13:14:03;;;;;;;9.85;2.20;;;;;;;;;;4983295;28;20030;-76
2024/03/26 13:16:32;;;;;;;10.20;2.13;;;;;;;;;;4962148;28;20104;-77
2024/03/26 13:18:59;;;;;;;8.55;2.10;;;;;;;;;;4982684;28;20025;-77
2024/03/26 13:21:27;;;;;;;8.20;2.00;;;;;;;;;;4981679;28;20715;-78
2024/03/26 13:23:54;;;;;;;10.90;2.22;;;;;;;;;;4982783;28;20046;-77
2024/03/26 13:26:22;;;;;;;9.55;2.40;;;;;;;;;;4980808;28;20041;-78
2024/03/26 13:28:48;;;;;;;11.15;2.35;;;;;;;;;;4974737;28;20033;-77
2024/03/26 13:31:15;;;;;;;10.05;2.15;;;;;;;;;;4986539;28;20059;-78
2024/03/26 13:33:42;;;;;;;14.50;2.30;;;;;;;;;;4976679;28;20115;-79
2024/03/26 13:36:09;;;;;;;11.27;2.22;;;;;;;;;;4982553;28;20595;-78
2024/03/26 13:38:37;;;;;;;9.32;2.20;;;;;;;;;;4977227;28;20120;-79
2024/03/26 13:41:04;;;;;;;8.90;2.15;;;;;;;;;;4988627;28;20895;-78
2024/03/26 13:43:31;;;;;;;8.77;2.00;;;;;;;;;;4978169;28;20069;-78
2024/03/26 13:45:58;;;;;;;;;;;;;;;;;;4981016;28;20029;-78
2024/03/26 13:48:26;;;;;;;11.32;2.10;;;;;;;;;;4983352;28;19917;-77
2024/03/26 13:50:52;;;;;;;9.48;1.90;;;;;;;;;;4979049;28;20038;-78
2024/03/26 13:53:21;;;;;;;10.63;2.22;;;;;;;;;;4983226;28;20137;-79
2024/03/26 13:55:47;;;;;;;11.40;2.50;;;;;;;;;;4978112;28;20034;-78
2024/03/26 13:58:13;;;;;;;;;;;;;;;;;;4982168;28;20099;-78
2024/03/26 14:00:42;;;;;;;9.90;2.17;;;;;;;;;;4981432;28;19923;-78
2024/03/26 14:03:10;;;;;;;10.68;2.72;;;;;;;;;;4983627;28;20128;-78
2024/03/26 14:05:38;;;;;;;13.00;2.50;;;;;;;;;;4977157;28;20038;-78
2024/03/26 14:08:06;;;;;;;13.98;2.53;;;;;;;;;;4981721;28;20038;-79
2024/03/26 14:10:33;;;;;;;12.15;2.58;;;;;;;;;;4974783;28;20164;-76
2024/03/26 14:13:00;;;;;;;15.88;3.10;;;;;;;;;;4981130;28;20657;-77
2024/03/26 14:15:27;;;;;;;13.50;2.88;;;;;;;;;;4979288;28;20034;-77
2024/03/26 14:17:54;;;;;;;10.98;2.63;;;;;;;;;;4979026;28;20030;-78
2024/03/26 14:20:21;;;;;;;10.25;2.35;;;;;;;;;;4980052;28;20033;-76
2024/03/26 14:22:49;;;;;;;10.23;2.40;;;;;;;;;;4978121;28;20043;-76
2024/03/26 14:25:18;;;;;;;12.27;2.28;;;;;;;;;;4976534;28;20033;-76
2024/03/26 14:27:47;;;;;;;10.73;2.35;;;;;;;;;;4979607;28;20141;-78
2024/03/26 14:30:14;;;;;;;11.93;2.42;;;;;;;;;;4980328;28;20044;-76
2024/03/26 14:32:43;;;;;;;11.35;2.60;;;;;;;;;;4973727;28;20057;-78
2024/03/26 14:35:11;;;;;;;11.93;2.58;;;;;;;;;;4983387;28;20056;-76
2024/03/26 14:37:39;;;;;;;10.48;2.40;;;;;;;;;;4975399;28;20829;-76